sensor_id;sensor_type;location;lat;lon;timestamp;pressure;altitude;pressure_sealevel;temperature;humidity
15880;BME280;61999;51.514;14.614;2024-01-15T00:00:05;98036.06;;;-8.61;100.00
15880;BME280;61999;51.514;14.614;2024-01-15T00:02:34;98033.25;;;-8.54;100.00
15880;BME280;61999;51.514;14.614;2024-01-15T00:05:03;98019.69;;;-8.81;100.00
15880;BME280;61999;51.514;14.614;2024-01-15T00:07:31;98019.53;;;-9.03;100.00
15880;BME280;61999;51.514;14.614;2024-01-15T00:10:00;98018.75;;;-8.78;100.00
15880;BME280;61999;51.514;14.614;2024-01-15T00:12:28;98019.16;;;-8.40;100.00
15880;BME280;61999;51.514;14.614;2024-01-15T00:14:56;98016.13;;;-8.52;100.00
15880;BME280;61999;51.514;14.614;2024-01-15T00:17:24;98003.25;;;-8.49;100.00
15880;BME280;61999;51.514;14.614;2024-01-15T00:19:52;98013.84;;;-8.84;100.00
15880;BME280;61999;51.514;14.614;2024-01-15T00:22:20;98011.44;;;-8.64;100.00
15880;BME280;61999;51.514;14.614;2024-01-15T00:24:48;98005.97;;;-8.78;100.00
15880;BME280;61999;51.514;14.614;2024-01-15T00:27:17;97998.44;;;-8.81;100.00
15880;BME280;61999;51.514;14.614;2024-01-15T00:29:45;97990.72;;;-8.31;100.00
15880;BME280;61999;51.514;14.614;2024-01-15T00:32:13;97996.84;;;-8.35;100.00
15880;BME280;61999;51.514;14.614;2024-01-15T00:34:41;97991.72;;;-8.35;100.00
15880;BME280;61999;51.514;14.614;2024-01-15T00:37:09;98005.19;;;-8.55;100.00
15880;BME280;61999;51.514;14.614;2024-01-15T00:39:37;97992.69;;;-8.63;100.00
15880;BME280;61999;51.514;14.614;2024-01-15T00:42:05;97982.78;;;-8.72;100.00
15880;BME280;61999;51.514;14.614;2024-01-15T00:44:35;97984.47;;;-8.71;100.00
15880;BME280;61999;51.514;14.614;2024-01-15T00:47:04;97985.47;;;-8.52;100.00
15880;BME280;61999;51.514;14.614;2024-01-15T00:49:32;97997.63;;;-8.83;100.00
15880;BME280;61999;51.514;14.614;2024-01-15T00:52:00;97981.91;;;-8.71;100.00
15880;BME280;61999;51.514;14.614;2024-01-15T00:54:28;97973.38;;;-8.70;100.00
15880;BME280;61999;51.514;14.614;2024-01-15T00:56:55;97978.16;;;-8.61;100.00
15880;BME280;61999;51.514;14.614;2024-01-15T00:59:23;97971.06;;;-8.53;100.00
15880;BME280;61999;51.514;14.614;2024-01-15T01:01:53;97961.84;;;-8.57;100.00
15880;BME280;61999;51.514;14.614;2024-01-15T01:04:20;97975.25;;;-8.52;100.00
15880;BME280;61999;51.514;14.614;2024-01-15T01:06:48;97968.06;;;-8.40;100.00
15880;BME280;61999;51.514;14.614;2024-01-15T01:09:16;97957.84;;;-8.40;100.00
15880;BME280;61999;51.514;14.614;2024-01-15T01:11:44;97960.88;;;-8.54;100.00
15880;BME280;61999;51.514;14.614;2024-01-15T01:14:12;97949.72;;;-8.52;100.00
15880;BME280;61999;51.514;14.614;2024-01-15T01:16:40;97937.97;;;-8.56;100.00
15880;BME280;61999;51.514;14.614;2024-01-15T01:19:09;97930.19;;;-8.53;100.00
15880;BME280;61999;51.514;14.614;2024-01-15T01:21:37;97924.06;;;-8.49;100.00
15880;BME280;61999;51.514;14.614;2024-01-15T01:24:05;97921.97;;;-8.37;100.00
15880;BME280;61999;51.514;14.614;2024-01-15T01:26:33;97936.75;;;-8.22;100.00
15880;BME280;61999;51.514;14.614;2024-01-15T01:29:01;97932.06;;;-8.34;100.00
15880;BME280;61999;51.514;14.614;2024-01-15T01:31:29;97925.53;;;-8.42;100.00
15880;BME280;61999;51.514;14.614;2024-01-15T01:33:57;97923.19;;;-8.24;100.00
15880;BME280;61999;51.514;14.614;2024-01-15T01:36:26;97920.19;;;-8.35;100.00
15880;BME280;61999;51.514;14.614;2024-01-15T01:38:54;97923.97;;;-8.22;100.00
15880;BME280;61999;51.514;14.614;2024-01-15T01:41:22;97922.03;;;-8.17;100.00
15880;BME280;61999;51.514;14.614;2024-01-15T01:43:50;97915.53;;;-8.48;100.00
15880;BME280;61999;51.514;14.614;2024-01-15T01:46:18;97921.50;;;-8.49;100.00
15880;BME280;61999;51.514;14.614;2024-01-15T01:48:47;97915.19;;;-8.38;100.00
15880;BME280;61999;51.514;14.614;2024-01-15T01:51:15;97916.97;;;-8.40;100.00
15880;BME280;61999;51.514;14.614;2024-01-15T01:53:45;97901.63;;;-8.40;100.00
15880;BME280;61999;51.514;14.614;2024-01-15T01:56:14;97900.56;;;-8.57;100.00
15880;BME280;61999;51.514;14.614;2024-01-15T01:58:43;97891.53;;;-8.44;100.00
15880;BME280;61999;51.514;14.614;2024-01-15T02:01:12;97899.97;;;-8.42;100.00
15880;BME280;61999;51.514;14.614;2024-01-15T02:03:40;97895.66;;;-8.39;100.00
15880;BME280;61999;51.514;14.614;2024-01-15T02:06:09;97909.88;;;-8.56;100.00
15880;BME280;61999;51.514;14.614;2024-01-15T02:08:37;97887.00;;;-8.59;100.00
15880;BME280;61999;51.514;14.614;2024-01-15T02:11:07;97889.59;;;-8.37;100.00
15880;BME280;61999;51.514;14.614;2024-01-15T02:13:34;97893.53;;;-8.52;100.00
15880;BME280;61999;51.514;14.614;2024-01-15T02:16:03;97884.88;;;-8.48;100.00
15880;BME280;61999;51.514;14.614;2024-01-15T02:18:40;97889.09;;;-8.47;100.00
15880;BME280;61999;51.514;14.614;2024-01-15T02:21:09;97891.03;;;-8.53;100.00
15880;BME280;61999;51.514;14.614;2024-01-15T02:23:39;97869.78;;;-8.54;100.00
15880;BME280;61999;51.514;14.614;2024-01-15T02:26:08;97886.31;;;-8.40;100.00
15880;BME280;61999;51.514;14.614;2024-01-15T02:28:36;97875.72;;;-8.31;100.00
15880;BME280;61999;51.514;14.614;2024-01-15T02:31:04;97879.44;;;-8.38;100.00
15880;BME280;61999;51.514;14.614;2024-01-15T02:33:32;97887.59;;;-8.52;100.00
15880;BME280;61999;51.514;14.614;2024-01-15T02:36:00;97891.91;;;-8.78;100.00
15880;BME280;61999;51.514;14.614;2024-01-15T02:38:29;97874.00;;;-8.76;100.00
15880;BME280;61999;51.514;14.614;2024-01-15T02:40:58;97871.44;;;-8.76;100.00
15880;BME280;61999;51.514;14.614;2024-01-15T02:43:27;97861.56;;;-8.62;100.00
15880;BME280;61999;51.514;14.614;2024-01-15T02:45:54;97859.88;;;-8.63;100.00
15880;BME280;61999;51.514;14.614;2024-01-15T02:48:22;97852.84;;;-8.56;100.00
15880;BME280;61999;51.514;14.614;2024-01-15T02:50:50;97852.09;;;-8.36;100.00
15880;BME280;61999;51.514;14.614;2024-01-15T02:53:18;97859.72;;;-8.58;100.00
15880;BME280;61999;51.514;14.614;2024-01-15T02:55:46;97847.53;;;-8.74;100.00
15880;BME280;61999;51.514;14.614;2024-01-15T02:58:15;97861.91;;;-8.48;100.00
15880;BME280;61999;51.514;14.614;2024-01-15T03:00:43;97852.06;;;-8.58;100.00
15880;BME280;61999;51.514;14.614;2024-01-15T03:03:13;97853.13;;;-8.64;100.00
15880;BME280;61999;51.514;14.614;2024-01-15T03:05:40;97836.25;;;-8.68;100.00
15880;BME280;61999;51.514;14.614;2024-01-15T03:08:08;97847.00;;;-8.83;100.00
15880;BME280;61999;51.514;14.614;2024-01-15T03:10:36;97845.84;;;-8.75;100.00
15880;BME280;61999;51.514;14.614;2024-01-15T03:13:04;97832.53;;;-8.59;100.00
15880;BME280;61999;51.514;14.614;2024-01-15T03:15:34;97837.97;;;-8.92;100.00
15880;BME280;61999;51.514;14.614;2024-01-15T03:18:02;97838.44;;;-9.06;100.00
15880;BME280;61999;51.514;14.614;2024-01-15T03:20:30;97840.97;;;-8.81;100.00
15880;BME280;61999;51.514;14.614;2024-01-15T03:22:58;97841.50;;;-8.71;100.00
15880;BME280;61999;51.514;14.614;2024-01-15T03:25:26;97846.69;;;-8.98;100.00
15880;BME280;61999;51.514;14.614;2024-01-15T03:27:54;97840.81;;;-9.00;100.00
15880;BME280;61999;51.514;14.614;2024-01-15T03:30:22;97838.75;;;-8.67;100.00
15880;BME280;61999;51.514;14.614;2024-01-15T03:32:51;97840.13;;;-8.81;100.00
15880;BME280;61999;51.514;14.614;2024-01-15T03:35:19;97848.59;;;-8.79;100.00
15880;BME280;61999;51.514;14.614;2024-01-15T03:37:47;97857.56;;;-8.93;100.00
15880;BME280;61999;51.514;14.614;2024-01-15T03:40:15;97857.44;;;-8.90;100.00
15880;BME280;61999;51.514;14.614;2024-01-15T03:42:44;97844.13;;;-8.98;100.00
15880;BME280;61999;51.514;14.614;2024-01-15T03:45:13;97840.25;;;-8.84;100.00
15880;BME280;61999;51.514;14.614;2024-01-15T03:47:41;97842.25;;;-8.93;100.00
15880;BME280;61999;51.514;14.614;2024-01-15T03:50:10;97854.22;;;-8.95;100.00
15880;BME280;61999;51.514;14.614;2024-01-15T03:52:38;97852.38;;;-9.15;100.00
15880;BME280;61999;51.514;14.614;2024-01-15T03:55:07;97834.94;;;-9.02;100.00
15880;BME280;61999;51.514;14.614;2024-01-15T03:57:35;97830.50;;;-8.97;100.00
15880;BME280;61999;51.514;14.614;2024-01-15T04:00:05;97848.72;;;-9.07;100.00
15880;BME280;61999;51.514;14.614;2024-01-15T04:02:33;97842.69;;;-8.81;100.00
15880;BME280;61999;51.514;14.614;2024-01-15T04:05:01;97848.06;;;-8.42;100.00
15880;BME280;61999;51.514;14.614;2024-01-15T04:07:30;97846.56;;;-8.48;100.00
15880;BME280;61999;51.514;14.614;2024-01-15T04:09:58;97847.56;;;-8.52;100.00
15880;BME280;61999;51.514;14.614;2024-01-15T04:12:26;97835.44;;;-8.47;100.00
15880;BME280;61999;51.514;14.614;2024-01-15T04:14:54;97859.44;;;-8.98;100.00
15880;BME280;61999;51.514;14.614;2024-01-15T04:17:22;97838.59;;;-8.85;100.00
15880;BME280;61999;51.514;14.614;2024-01-15T04:19:50;97836.78;;;-8.36;100.00
15880;BME280;61999;51.514;14.614;2024-01-15T04:22:18;97850.19;;;-8.31;100.00
15880;BME280;61999;51.514;14.614;2024-01-15T04:24:48;97779.44;;;-8.29;100.00
15880;BME280;61999;51.514;14.614;2024-01-15T04:27:15;97865.97;;;-8.66;100.00
15880;BME280;61999;51.514;14.614;2024-01-15T04:29:43;97829.34;;;-8.66;100.00
15880;BME280;61999;51.514;14.614;2024-01-15T04:32:12;97812.69;;;-8.53;100.00
15880;BME280;61999;51.514;14.614;2024-01-15T04:34:40;97838.19;;;-8.51;100.00
15880;BME280;61999;51.514;14.614;2024-01-15T04:37:08;97819.66;;;-8.56;100.00
15880;BME280;61999;51.514;14.614;2024-01-15T04:39:35;97831.91;;;-8.43;100.00
15880;BME280;61999;51.514;14.614;2024-01-15T04:42:05;97832.13;;;-8.49;100.00
15880;BME280;61999;51.514;14.614;2024-01-15T04:44:33;97834.97;;;-8.34;100.00
15880;BME280;61999;51.514;14.614;2024-01-15T04:47:01;97838.44;;;-8.35;100.00
15880;BME280;61999;51.514;14.614;2024-01-15T04:49:29;97850.66;;;-8.44;100.00
15880;BME280;61999;51.514;14.614;2024-01-15T04:51:57;97849.78;;;-8.43;100.00
15880;BME280;61999;51.514;14.614;2024-01-15T04:54:25;97821.34;;;-8.33;100.00
15880;BME280;61999;51.514;14.614;2024-01-15T04:56:53;97846.16;;;-8.37;100.00
15880;BME280;61999;51.514;14.614;2024-01-15T04:59:22;97872.88;;;-8.46;100.00
15880;BME280;61999;51.514;14.614;2024-01-15T05:01:50;97857.53;;;-8.46;100.00
15880;BME280;61999;51.514;14.614;2024-01-15T05:04:19;97833.97;;;-8.30;100.00
15880;BME280;61999;51.514;14.614;2024-01-15T05:06:47;97816.91;;;-8.52;100.00
15880;BME280;61999;51.514;14.614;2024-01-15T05:09:14;97816.63;;;-8.22;100.00
15880;BME280;61999;51.514;14.614;2024-01-15T05:11:42;97831.78;;;-8.39;100.00
15880;BME280;61999;51.514;14.614;2024-01-15T05:14:10;97818.47;;;-8.26;100.00
15880;BME280;61999;51.514;14.614;2024-01-15T05:16:39;97830.75;;;-8.35;100.00
15880;BME280;61999;51.514;14.614;2024-01-15T05:19:07;97817.34;;;-8.40;100.00
15880;BME280;61999;51.514;14.614;2024-01-15T05:21:35;97813.00;;;-8.16;100.00
15880;BME280;61999;51.514;14.614;2024-01-15T05:24:03;97829.75;;;-8.31;100.00
15880;BME280;61999;51.514;14.614;2024-01-15T05:26:31;97827.09;;;-8.28;100.00
15880;BME280;61999;51.514;14.614;2024-01-15T05:28:59;97815.22;;;-8.51;100.00
15880;BME280;61999;51.514;14.614;2024-01-15T05:31:27;97830.22;;;-8.44;100.00
15880;BME280;61999;51.514;14.614;2024-01-15T05:33:56;97837.00;;;-8.43;100.00
15880;BME280;61999;51.514;14.614;2024-01-15T05:36:24;97827.91;;;-8.50;100.00
15880;BME280;61999;51.514;14.614;2024-01-15T05:38:52;97831.25;;;-8.48;100.00
15880;BME280;61999;51.514;14.614;2024-01-15T05:41:20;97842.44;;;-8.52;100.00
15880;BME280;61999;51.514;14.614;2024-01-15T05:43:48;97821.16;;;-8.74;100.00
15880;BME280;61999;51.514;14.614;2024-01-15T05:46:16;97833.38;;;-8.82;100.00
15880;BME280;61999;51.514;14.614;2024-01-15T05:48:44;97828.13;;;-8.56;100.00
15880;BME280;61999;51.514;14.614;2024-01-15T05:51:13;97829.59;;;-8.72;100.00
15880;BME280;61999;51.514;14.614;2024-01-15T05:53:41;97833.03;;;-8.73;100.00
15880;BME280;61999;51.514;14.614;2024-01-15T05:56:11;97819.16;;;-8.66;100.00
15880;BME280;61999;51.514;14.614;2024-01-15T05:58:38;97830.38;;;-8.70;100.00
15880;BME280;61999;51.514;14.614;2024-01-15T06:01:06;97820.59;;;-8.59;100.00
15880;BME280;61999;51.514;14.614;2024-01-15T06:03:34;97820.59;;;-8.59;100.00
15880;BME280;61999;51.514;14.614;2024-01-15T06:06:03;97826.56;;;-8.36;100.00
15880;BME280;61999;51.514;14.614;2024-01-15T06:08:32;97821.78;;;-8.46;100.00
15880;BME280;61999;51.514;14.614;2024-01-15T06:11:00;97825.94;;;-8.65;100.00
15880;BME280;61999;51.514;14.614;2024-01-15T06:13:28;97820.94;;;-8.68;100.00
15880;BME280;61999;51.514;14.614;2024-01-15T06:15:56;97824.38;;;-8.93;100.00
15880;BME280;61999;51.514;14.614;2024-01-15T06:18:24;97826.72;;;-8.87;100.00
15880;BME280;61999;51.514;14.614;2024-01-15T06:20:52;97827.03;;;-8.72;100.00
15880;BME280;61999;51.514;14.614;2024-01-15T06:23:20;97839.53;;;-8.88;100.00
15880;BME280;61999;51.514;14.614;2024-01-15T06:25:49;97808.91;;;-8.88;100.00
15880;BME280;61999;51.514;14.614;2024-01-15T06:28:17;97814.03;;;-8.66;100.00
15880;BME280;61999;51.514;14.614;2024-01-15T06:30:45;97829.16;;;-8.83;100.00
15880;BME280;61999;51.514;14.614;2024-01-15T06:33:13;97825.06;;;-8.88;100.00
15880;BME280;61999;51.514;14.614;2024-01-15T06:35:41;97809.75;;;-8.88;100.00
15880;BME280;61999;51.514;14.614;2024-01-15T06:38:09;97829.69;;;-8.75;100.00
15880;BME280;61999;51.514;14.614;2024-01-15T06:40:36;97830.03;;;-8.84;100.00
15880;BME280;61999;51.514;14.614;2024-01-15T06:43:07;97827.41;;;-9.06;100.00
15880;BME280;61999;51.514;14.614;2024-01-15T06:45:35;97835.09;;;-9.32;100.00
15880;BME280;61999;51.514;14.614;2024-01-15T06:48:04;97842.38;;;-9.21;100.00
15880;BME280;61999;51.514;14.614;2024-01-15T06:50:34;97826.25;;;-9.46;100.00
15880;BME280;61999;51.514;14.614;2024-01-15T06:53:02;97823.28;;;-9.59;100.00
15880;BME280;61999;51.514;14.614;2024-01-15T06:55:30;97829.84;;;-9.52;100.00
15880;BME280;61999;51.514;14.614;2024-01-15T06:57:58;97828.34;;;-9.33;100.00
15880;BME280;61999;51.514;14.614;2024-01-15T07:00:27;97829.59;;;-9.44;100.00
15880;BME280;61999;51.514;14.614;2024-01-15T07:02:55;97831.81;;;-9.60;100.00
15880;BME280;61999;51.514;14.614;2024-01-15T07:05:24;97818.13;;;-9.33;100.00
15880;BME280;61999;51.514;14.614;2024-01-15T07:07:52;97829.13;;;-9.30;100.00
15880;BME280;61999;51.514;14.614;2024-01-15T07:10:20;97819.25;;;-9.40;100.00
15880;BME280;61999;51.514;14.614;2024-01-15T07:12:47;97810.22;;;-9.25;100.00
15880;BME280;61999;51.514;14.614;2024-01-15T07:15:15;97817.56;;;-9.41;100.00
15880;BME280;61999;51.514;14.614;2024-01-15T07:17:45;97836.56;;;-9.24;100.00
15880;BME280;61999;51.514;14.614;2024-01-15T07:20:13;97818.44;;;-9.42;100.00
15880;BME280;61999;51.514;14.614;2024-01-15T07:22:41;97816.16;;;-9.24;100.00
15880;BME280;61999;51.514;14.614;2024-01-15T07:25:09;97820.94;;;-9.40;100.00
15880;BME280;61999;51.514;14.614;2024-01-15T07:27:37;97833.31;;;-9.29;100.00
15880;BME280;61999;51.514;14.614;2024-01-15T07:30:06;97795.41;;;-9.15;100.00
15880;BME280;61999;51.514;14.614;2024-01-15T07:32:35;97841.94;;;-9.08;100.00
15880;BME280;61999;51.514;14.614;2024-01-15T07:35:05;97847.13;;;-8.87;100.00
15880;BME280;61999;51.514;14.614;2024-01-15T07:37:33;97840.41;;;-9.13;100.00
15880;BME280;61999;51.514;14.614;2024-01-15T07:40:01;97824.88;;;-9.06;100.00
15880;BME280;61999;51.514;14.614;2024-01-15T07:42:31;97865.00;;;-9.12;100.00
15880;BME280;61999;51.514;14.614;2024-01-15T07:44:59;97837.06;;;-9.15;100.00
15880;BME280;61999;51.514;14.614;2024-01-15T07:47:27;97852.25;;;-9.12;100.00
15880;BME280;61999;51.514;14.614;2024-01-15T07:49:55;97839.34;;;-9.07;100.00
15880;BME280;61999;51.514;14.614;2024-01-15T07:52:25;97853.69;;;-8.79;100.00
15880;BME280;61999;51.514;14.614;2024-01-15T07:54:53;97848.59;;;-8.79;100.00
15880;BME280;61999;51.514;14.614;2024-01-15T07:57:21;97846.31;;;-8.87;100.00
15880;BME280;61999;51.514;14.614;2024-01-15T07:59:49;97851.47;;;-8.65;100.00
15880;BME280;61999;51.514;14.614;2024-01-15T08:02:18;97849.41;;;-8.79;100.00
15880;BME280;61999;51.514;14.614;2024-01-15T08:04:46;97857.13;;;-8.80;100.00
15880;BME280;61999;51.514;14.614;2024-01-15T08:07:14;97856.00;;;-8.50;100.00
15880;BME280;61999;51.514;14.614;2024-01-15T08:09:43;97874.78;;;-8.51;100.00
15880;BME280;61999;51.514;14.614;2024-01-15T08:12:11;97852.44;;;-8.46;100.00
15880;BME280;61999;51.514;14.614;2024-01-15T08:14:39;97852.66;;;-8.52;100.00
15880;BME280;61999;51.514;14.614;2024-01-15T08:17:07;97850.56;;;-8.18;100.00
15880;BME280;61999;51.514;14.614;2024-01-15T08:19:35;97854.16;;;-8.23;100.00
15880;BME280;61999;51.514;14.614;2024-01-15T08:22:03;97872.63;;;-8.61;100.00
15880;BME280;61999;51.514;14.614;2024-01-15T08:24:31;97870.63;;;-8.31;100.00
15880;BME280;61999;51.514;14.614;2024-01-15T08:27:00;97859.78;;;-8.36;100.00
15880;BME280;61999;51.514;14.614;2024-01-15T08:29:28;97863.63;;;-8.26;100.00
15880;BME280;61999;51.514;14.614;2024-01-15T08:31:59;97866.78;;;-8.42;100.00
15880;BME280;61999;51.514;14.614;2024-01-15T08:34:28;97872.06;;;-8.70;100.00
15880;BME280;61999;51.514;14.614;2024-01-15T08:36:57;97860.22;;;-8.72;100.00
15880;BME280;61999;51.514;14.614;2024-01-15T08:39:25;97872.13;;;-8.71;100.00
15880;BME280;61999;51.514;14.614;2024-01-15T08:41:53;97845.47;;;-8.64;100.00
15880;BME280;61999;51.514;14.614;2024-01-15T08:44:22;97871.22;;;-8.47;100.00
15880;BME280;61999;51.514;14.614;2024-01-15T08:46:50;97872.22;;;-8.74;100.00
15880;BME280;61999;51.514;14.614;2024-01-15T08:49:18;97876.44;;;-8.50;100.00
15880;BME280;61999;51.514;14.614;2024-01-15T08:51:46;97892.47;;;-8.46;100.00
15880;BME280;61999;51.514;14.614;2024-01-15T08:54:14;97881.53;;;-8.50;100.00
15880;BME280;61999;51.514;14.614;2024-01-15T08:56:42;97883.44;;;-8.55;100.00
15880;BME280;61999;51.514;14.614;2024-01-15T08:59:10;97869.44;;;-8.45;100.00
15880;BME280;61999;51.514;14.614;2024-01-15T09:01:39;97863.94;;;-8.12;100.00
15880;BME280;61999;51.514;14.614;2024-01-15T09:04:07;97872.53;;;-8.36;100.00
15880;BME280;61999;51.514;14.614;2024-01-15T09:06:35;97868.22;;;-8.58;100.00
15880;BME280;61999;51.514;14.614;2024-01-15T09:09:03;97884.94;;;-8.73;100.00
15880;BME280;61999;51.514;14.614;2024-01-15T09:11:31;97887.59;;;-8.52;100.00
15880;BME280;61999;51.514;14.614;2024-01-15T09:13:59;97884.16;;;-8.51;100.00
15880;BME280;61999;51.514;14.614;2024-01-15T09:16:28;97887.28;;;-8.21;100.00
15880;BME280;61999;51.514;14.614;2024-01-15T09:18:57;97878.09;;;-8.25;100.00
15880;BME280;61999;51.514;14.614;2024-01-15T09:21:25;97879.09;;;-8.07;100.00
15880;BME280;61999;51.514;14.614;2024-01-15T09:23:53;97882.84;;;-8.16;100.00
15880;BME280;61999;51.514;14.614;2024-01-15T09:26:21;97887.75;;;-8.11;100.00
15880;BME280;61999;51.514;14.614;2024-01-15T09:28:49;97893.72;;;-7.89;100.00
15880;BME280;61999;51.514;14.614;2024-01-15T09:31:17;97888.63;;;-8.11;100.00
15880;BME280;61999;51.514;14.614;2024-01-15T09:33:47;97902.75;;;-8.24;100.00
15880;BME280;61999;51.514;14.614;2024-01-15T09:36:16;97894.22;;;-8.70;100.00
15880;BME280;61999;51.514;14.614;2024-01-15T09:38:44;97886.94;;;-8.81;100.00
15880;BME280;61999;51.514;14.614;2024-01-15T09:41:12;97893.66;;;-8.55;100.00
15880;BME280;61999;51.514;14.614;2024-01-15T09:43:40;97882.88;;;-8.17;100.00
15880;BME280;61999;51.514;14.614;2024-01-15T09:46:10;97886.25;;;-7.93;100.00
15880;BME280;61999;51.514;14.614;2024-01-15T09:48:39;97901.03;;;-8.02;100.00
15880;BME280;61999;51.514;14.614;2024-01-15T09:51:07;97901.47;;;-7.90;100.00
15880;BME280;61999;51.514;14.614;2024-01-15T09:53:39;97903.53;;;-8.00;100.00
15880;BME280;61999;51.514;14.614;2024-01-15T09:56:08;97889.78;;;-7.33;100.00
15880;BME280;61999;51.514;14.614;2024-01-15T09:58:39;97905.00;;;-7.72;100.00
15880;BME280;61999;51.514;14.614;2024-01-15T10:01:08;97905.75;;;-7.91;100.00
15880;BME280;61999;51.514;14.614;2024-01-15T10:03:39;97892.41;;;-8.21;100.00
15880;BME280;61999;51.514;14.614;2024-01-15T10:06:09;97883.72;;;-7.73;100.00
15880;BME280;61999;51.514;14.614;2024-01-15T10:08:40;97898.69;;;-7.64;100.00
15880;BME280;61999;51.514;14.614;2024-01-15T10:11:08;97890.44;;;-7.70;100.00
15880;BME280;61999;51.514;14.614;2024-01-15T10:13:36;97893.09;;;-8.17;100.00
15880;BME280;61999;51.514;14.614;2024-01-15T10:16:06;97890.84;;;-8.03;100.00
15880;BME280;61999;51.514;14.614;2024-01-15T10:18:34;97872.78;;;-7.99;100.00
15880;BME280;61999;51.514;14.614;2024-01-15T10:21:03;97893.59;;;-8.08;100.00
15880;BME280;61999;51.514;14.614;2024-01-15T10:23:32;97892.78;;;-8.08;100.00
15880;BME280;61999;51.514;14.614;2024-01-15T10:26:02;97891.88;;;-7.85;100.00
15880;BME280;61999;51.514;14.614;2024-01-15T10:28:30;97860.00;;;-7.99;100.00
15880;BME280;61999;51.514;14.614;2024-01-15T10:31:00;97895.97;;;-8.25;100.00
15880;BME280;61999;51.514;14.614;2024-01-15T10:33:28;97857.63;;;-7.81;100.00
15880;BME280;61999;51.514;14.614;2024-01-15T10:35:58;97883.63;;;-8.14;100.00
15880;BME280;61999;51.514;14.614;2024-01-15T10:38:27;97861.97;;;-8.27;100.00
15880;BME280;61999;51.514;14.614;2024-01-15T10:40:56;97856.81;;;-8.04;100.00
15880;BME280;61999;51.514;14.614;2024-01-15T10:43:25;97887.78;;;-7.89;100.00
15880;BME280;61999;51.514;14.614;2024-01-15T10:45:53;97875.19;;;-8.16;100.00
15880;BME280;61999;51.514;14.614;2024-01-15T10:48:21;97866.78;;;-7.98;100.00
15880;BME280;61999;51.514;14.614;2024-01-15T10:50:50;97883.03;;;-7.99;100.00
15880;BME280;61999;51.514;14.614;2024-01-15T10:53:18;97863.97;;;-7.91;100.00
15880;BME280;61999;51.514;14.614;2024-01-15T10:55:47;97898.84;;;-8.11;100.00
15880;BME280;61999;51.514;14.614;2024-01-15T10:58:16;97870.91;;;-7.93;100.00
15880;BME280;61999;51.514;14.614;2024-01-15T11:00:46;97879.94;;;-8.07;100.00
15880;BME280;61999;51.514;14.614;2024-01-15T11:03:16;97883.59;;;-7.92;100.00
15880;BME280;61999;51.514;14.614;2024-01-15T11:05:45;97880.03;;;-8.10;100.00
15880;BME280;61999;51.514;14.614;2024-01-15T11:08:17;97883.56;;;-7.90;100.00
15880;BME280;61999;51.514;14.614;2024-01-15T11:10:47;97899.03;;;-8.17;100.00
15880;BME280;61999;51.514;14.614;2024-01-15T11:13:21;97883.47;;;-8.33;100.00
15880;BME280;61999;51.514;14.614;2024-01-15T11:16:00;97882.88;;;-8.17;100.00
15880;BME280;61999;51.514;14.614;2024-01-15T11:18:30;97866.66;;;-7.94;100.00
15880;BME280;61999;51.514;14.614;2024-01-15T11:21:20;97888.81;;;-8.17;100.00
15880;BME280;61999;51.514;14.614;2024-01-15T11:23:52;97879.56;;;-8.20;100.00
15880;BME280;61999;51.514;14.614;2024-01-15T11:26:33;97879.22;;;-8.10;100.00
15880;BME280;61999;51.514;14.614;2024-01-15T11:29:04;97868.75;;;-8.04;100.00
15880;BME280;61999;51.514;14.614;2024-01-15T11:32:03;97885.81;;;-8.05;100.00
15880;BME280;61999;51.514;14.614;2024-01-15T11:34:54;97878.50;;;-8.14;100.00
15880;BME280;61999;51.514;14.614;2024-01-15T11:37:26;97883.63;;;-8.14;100.00
15880;BME280;61999;51.514;14.614;2024-01-15T11:39:56;97889.22;;;-7.82;100.00
15880;BME280;61999;51.514;14.614;2024-01-15T11:42:30;97871.06;;;-7.76;100.00
15880;BME280;61999;51.514;14.614;2024-01-15T11:44:58;97875.53;;;-7.81;100.00
15880;BME280;61999;51.514;14.614;2024-01-15T11:48:10;97873.56;;;-7.54;100.00
15880;BME280;61999;51.514;14.614;2024-01-15T11:50:41;97879.09;;;-7.85;100.00
15880;BME280;61999;51.514;14.614;2024-01-15T11:53:32;97872.66;;;-7.73;100.00
15880;BME280;61999;51.514;14.614;2024-01-15T11:56:03;97855.72;;;-7.76;100.00
15880;BME280;61999;51.514;14.614;2024-01-15T11:58:35;97849.25;;;-7.85;100.00
15880;BME280;61999;51.514;14.614;2024-01-15T12:01:04;97885.59;;;-7.99;100.00
15880;BME280;61999;51.514;14.614;2024-01-15T12:03:33;97846.34;;;-7.98;100.00
15880;BME280;61999;51.514;14.614;2024-01-15T12:06:01;97846.53;;;-7.39;100.00
15880;BME280;61999;51.514;14.614;2024-01-15T12:08:29;97852.03;;;-7.08;100.00
15880;BME280;61999;51.514;14.614;2024-01-15T12:10:57;97854.47;;;-7.25;100.00
15880;BME280;61999;51.514;14.614;2024-01-15T12:13:27;97849.72;;;-7.34;100.00
15880;BME280;61999;51.514;14.614;2024-01-15T12:15:54;97861.84;;;-7.60;100.00
15880;BME280;61999;51.514;14.614;2024-01-15T12:18:23;97841.53;;;-7.22;100.00
15880;BME280;61999;51.514;14.614;2024-01-15T12:20:54;97852.03;;;-7.48;100.00
15880;BME280;61999;51.514;14.614;2024-01-15T12:23:23;97848.25;;;-7.19;100.00
15880;BME280;61999;51.514;14.614;2024-01-15T12:25:51;97843.31;;;-7.03;100.00
15880;BME280;61999;51.514;14.614;2024-01-15T12:28:19;97839.59;;;-6.96;100.00
15880;BME280;61999;51.514;14.614;2024-01-15T12:30:47;97835.50;;;-7.00;100.00
15880;BME280;61999;51.514;14.614;2024-01-15T12:33:18;97836.34;;;-7.20;100.00
15880;BME280;61999;51.514;14.614;2024-01-15T12:35:47;97832.72;;;-7.35;100.00
15880;BME280;61999;51.514;14.614;2024-01-15T12:38:18;97830.00;;;-7.12;100.00
15880;BME280;61999;51.514;14.614;2024-01-15T12:40:46;97842.09;;;-6.76;100.00
15880;BME280;61999;51.514;14.614;2024-01-15T12:43:14;97817.19;;;-7.31;100.00
15880;BME280;61999;51.514;14.614;2024-01-15T12:45:42;97818.75;;;-7.08;100.00
15880;BME280;61999;51.514;14.614;2024-01-15T12:48:10;97827.00;;;-6.82;100.00